Aeroporto :
LOGIN :

Iscrizione | Disclaimer

   EN    FR    IT 

 










Sommario :    VFR   VFR Marginale   IFR   IFR Intensivo   IFR Molto Intensivo
Visibilità : 
Base nubi : 
>= 8 km
>= 3000ft
5 / 8 km
1000 / 3000 ft
1500m / 5 km
500 / 1000 ft
800 / 1500m
200 / 500 ft
< 800m
< 200 ft
Simboli :   Temporali  Nebbia  Neve Forte  Precipitazioni Forti  Vento > 20 kt
SIGMETs :   Varie  Temporali  Ghiacco  Turbolenza  Onda orograficha  Ceneri Vulcaniche






- Altitudine del aeroporto : 1768 ft


LEHC - Huesca Pirineos

ULTIMO METAR :
  • 011500Z VRB02KT 7000 -RA SCT006 BKN015 OVC030 09/08 Q1013 RERA

METARs OBSOLETI :
  • 011451Z VRB01KT 5000 RA BR BCFG SCT006 BKN015 OVC030 09/08 Q1013
  • 011430Z 20002KT 2000 R30L/1400D R12R/P2000 RA BR OVC006 09/08 Q1013
  • 011419Z 00000KT 5000 -RA BR BKN005 OVC015 10/08 Q1013
  • 011400Z 04001KT 6000 -RA SCT005 OVC023 10/08 Q1013
  • 011330Z VRB01KT 6000 -RA FEW002 BKN025 OVC034 09/08 Q1013
  • 011300Z VRB02KT 8000 -RA FEW002 BKN022 OVC030 09/08 Q1013
  • 011230Z VRB02KT 9999 FEW002 SCT022 OVC030 09/08 Q1013

TAF TAF LEHC
Valido dal 01 a 15 ore il 02 a 15 ore UTC


011400Z 0115/0215 VRB04KT 9999 BKN030 TX14/0212Z TN06/0206Z
TEMPO 0115/0208 2000 RA BR BKN009
PROB40
TEMPO 0122/0206 0800 FG VV001
BECMG 0208/0211 24010KT



MetMap, La meteo Aeronautica in un colpo d'occhio ! - Copyright ORBIFLY Dicembre 2007 - Disclaimer

ORBIFLY MET'MAP TEAM :

Programmazione e sviluppo : Alexandra Zaïnal
Concezione : Baudouin d'Aumeries
Aiuto per la programmazione : Marc-Olivier Méhu
Supporto tecnico e logistico : Manuel Goepfert
Aiuto per la traduzione : Arnaldo La Scala

Contatto : metmap@orbifly.com




FONTI E CREDITI :

   NOAA